Time;durP1;ratioP1;P1;durP2;ratioP2;P2;SDS_P1;SDS_P2;PMS_P1;PMS_P2;Temp;Humidity;BMP_temperature;BMP_pressure;BME280_temperature;BME280_humidity;BME280_pressure;Samples;Min_cycle;Max_cycle;Signal;HPM_P1;HPM_P2
2022/09/27 00:01:46;;;;;;;1.27;0.70;;;;;7.40;92313.00;;;;7402652;19;20144;-79
2022/09/27 00:04:22;;;;;;;0.37;0.37;;;;;7.40;92312.00;;;;7403233;19;20150;-78
2022/09/27 00:06:50;;;;;;;0.40;0.40;;;;;7.40;92305.00;;;;7404961;19;20121;-79
2022/09/27 00:09:17;;;;;;;0.40;0.40;;;;;7.40;92307.00;;;;7401996;19;20145;-80
2022/09/27 00:11:54;;;;;;;1.70;0.30;;;;;7.50;92313.00;;;;7400558;19;20280;-78
2022/09/27 00:14:26;;;;;;;1.20;0.63;;;;;7.60;92304.00;;;;7399386;19;20193;-78
2022/09/27 00:17:06;;;;;;;2.30;0.40;;;;;7.50;92305.00;;;;7402678;19;20510;-79
2022/09/27 00:19:34;;;;;;;0.30;0.30;;;;;7.50;92305.00;;;;7402340;19;20150;-78
2022/09/27 00:22:09;;;;;;;0.93;0.37;;;;;7.50;92303.00;;;;7403959;19;20508;-78
2022/09/27 00:24:37;;;;;;;0.90;0.23;;;;;7.40;92304.00;;;;7404068;19;20129;-77
2022/09/27 00:27:04;;;;;;;0.40;0.40;;;;;7.60;92306.00;;;;7399883;19;20125;-79
2022/09/27 00:29:40;;;;;;;0.73;0.63;;;;;7.60;92290.00;;;;7403283;19;20129;-78
2022/09/27 00:32:07;;;;;;;0.10;0.10;;;;;7.60;92298.00;;;;7402633;19;20145;-80
2022/09/27 00:34:35;;;;;;;1.80;0.30;;;;;7.50;92295.00;;;;7402687;19;20129;-79
2022/09/27 00:37:10;;;;;;;0.20;0.20;;;;;7.60;92297.00;;;;7402331;19;20137;-79
2022/09/27 00:39:40;;;;;;;0.97;0.33;;;;;7.60;92292.00;;;;7404248;19;20121;-79
2022/09/27 00:42:11;;;;;;;1.07;0.47;;;;;7.80;92296.00;;;;7401719;19;20552;-78
2022/09/27 00:45:05;;;;;;;0.20;0.20;;;;;7.60;92287.00;;;;7403303;19;20129;-80
2022/09/27 00:47:48;;;;;;;0.20;0.20;;;;;7.80;92295.00;;;;7401658;19;20544;-78
2022/09/27 00:50:45;;;;;;;0.30;0.30;;;;;7.70;92286.00;;;;7401937;19;20568;-78
2022/09/27 00:53:38;;;;;;;1.13;0.30;;;;;7.60;92291.00;;;;7400204;19;20171;-79
2022/09/27 00:56:19;;;;;;;0.30;0.20;;;;;7.70;92288.00;;;;7402344;19;20150;-78
2022/09/27 00:58:53;;;;;;;0.53;0.20;;;;;7.60;92299.00;;;;7402305;19;20142;-79
2022/09/27 01:01:29;;;;;;;0.50;0.50;;;;;7.50;92290.00;;;;7401832;19;20154;-79
2022/09/27 01:04:05;;;;;;;0.30;0.30;;;;;7.60;92286.00;;;;7399710;19;20148;-78
2022/09/27 01:06:40;;;;;;;2.00;0.37;;;;;7.80;92297.00;;;;7400202;19;20133;-79
2022/09/27 01:09:20;;;;;;;0.83;0.53;;;;;7.60;92292.00;;;;7400689;19;20141;-79
2022/09/27 01:12:14;;;;;;;1.50;0.70;;;;;7.70;92289.00;;;;7401784;19;20176;-79
2022/09/27 01:14:58;;;;;;;2.17;0.70;;;;;7.60;92290.00;;;;7397966;19;20133;-78
2022/09/27 01:17:58;;;;;;;2.10;0.60;;;;;7.60;92294.00;;;;7401166;19;20136;-79
2022/09/27 01:20:48;;;;;;;3.27;0.80;;;;;7.70;92287.00;;;;7403066;19;20576;-79
2022/09/27 01:23:53;;;;;;;2.00;0.90;;;;;7.60;92287.00;;;;7398420;19;20155;-78
2022/09/27 01:26:39;;;;;;;1.07;0.60;;;;;7.70;92280.00;;;;7400873;19;20140;-78
2022/09/27 01:29:15;;;;;;;2.60;0.67;;;;;7.70;92287.00;;;;7399950;19;20121;-77
2022/09/27 01:32:06;;;;;;;1.63;0.73;;;;;7.60;92292.00;;;;7403483;19;20120;-78
2022/09/27 01:35:00;;;;;;;3.23;0.83;;;;;7.50;92298.00;;;;7400964;19;20664;-77
2022/09/27 01:38:05;;;;;;;1.50;0.70;;;;;7.80;92299.00;;;;7401896;19;20491;-79
2022/09/27 01:40:58;;;;;;;1.17;0.63;;;;;7.70;92296.00;;;;7405370;19;20148;-79
2022/09/27 01:43:45;;;;;;;0.43;0.43;;;;;7.70;92288.00;;;;7403234;19;20168;-78
2022/09/27 01:46:34;;;;;;;0.60;0.60;;;;;7.50;92308.00;;;;7409005;19;20133;-76
2022/09/27 01:49:07;;;;;;;2.23;0.40;;;;;7.50;92316.00;;;;7405816;19;20129;-78
2022/09/27 01:52:07;;;;;;;1.37;0.50;;;;;7.40;92330.00;;;;7410126;19;20145;-78
2022/09/27 01:54:44;;;;;;;2.10;0.53;;;;;7.30;92328.00;;;;7414434;19;20144;-79
2022/09/27 01:57:23;;;;;;;0.80;0.40;;;;;7.10;92332.00;;;;7398771;19;20125;-76
2022/09/27 02:00:00;;;;;;;1.13;0.50;;;;;6.80;92326.00;;;;7400484;19;20129;-76
2022/09/27 02:08:53;;;;;;;1.30;0.70;;;;;6.60;92330.00;;;;7388746;19;20200;-80
2022/09/27 02:14:54;;;;;;;1.53;1.10;;;;;6.30;92328.00;;;;7370685;19;20200;31
2022/09/27 02:18:22;;;;;;;2.03;0.80;;;;;6.40;92325.00;;;;7386909;19;20188;-82
2022/09/27 02:24:54;;;;;;;0.70;0.60;;;;;6.30;92328.00;;;;7365888;19;20217;-79
2022/09/27 02:27:46;;;;;;;3.07;1.23;;;;;6.30;92317.00;;;;7377605;19;20181;-77
2022/09/27 02:30:20;;;;;;;2.97;1.10;;;;;6.20;92323.00;;;;7420396;19;20125;-77
2022/09/27 02:32:56;;;;;;;3.20;1.47;;;;;6.30;92320.00;;;;7408527;19;20125;-78
2022/09/27 02:35:30;;;;;;;5.70;1.50;;;;;6.40;92321.00;;;;7406418;19;20153;-82
2022/09/27 02:38:05;;;;;;;3.07;1.80;;;;;6.50;92330.00;;;;7413579;19;20157;-79
2022/09/27 02:40:53;;;;;;;6.57;2.10;;;;;6.40;92333.00;;;;7397060;19;20282;-79
2022/09/27 02:43:30;;;;;;;7.83;2.50;;;;;6.30;92334.00;;;;7402003;19;20180;-79
2022/09/27 02:46:46;;;;;;;4.60;1.93;;;;;6.30;92333.00;;;;7394445;19;20178;-81
2022/09/27 02:49:45;;;;;;;4.03;2.13;;;;;6.40;92338.00;;;;7403522;19;20132;-78
2022/09/27 02:52:24;;;;;;;4.93;2.43;;;;;6.40;92334.00;;;;7389203;19;20188;-79
2022/09/27 02:55:26;;;;;;;4.57;2.37;;;;;6.50;92343.00;;;;7396467;19;20233;-81
2022/09/27 02:58:02;;;;;;;5.17;2.10;;;;;6.60;92340.00;;;;7412927;19;20167;-81
2022/09/27 03:01:16;;;;;;;7.77;1.93;;;;;6.50;92344.00;;;;7377289;19;20595;-80
2022/09/27 03:04:07;;;;;;;5.13;2.30;;;;;6.60;92357.00;;;;7415697;19;20160;-76
2022/09/27 03:06:45;;;;;;;9.20;2.80;;;;;6.70;92354.00;;;;7422358;19;20146;-78
2022/09/27 03:09:27;;;;;;;11.23;3.63;;;;;6.80;92352.00;;;;7421819;19;20142;-81
2022/09/27 03:12:04;;;;;;;6.80;2.87;;;;;6.80;92349.00;;;;7423674;19;20190;-80
2022/09/27 03:14:39;;;;;;;5.70;3.30;;;;;6.80;92347.00;;;;7416645;19;20188;-78
2022/09/27 03:17:13;;;;;;;13.93;3.87;;;;;6.80;92347.00;;;;7425618;19;20741;-77
2022/09/27 03:19:40;;;;;;;10.67;4.17;;;;;6.70;92349.00;;;;7423357;19;20164;-77
2022/09/27 03:22:11;;;;;;;9.47;3.50;;;;;6.90;92351.00;;;;7422839;19;20129;-75
2022/09/27 03:24:48;;;;;;;13.47;3.77;;;;;6.70;92361.00;;;;7420152;19;20172;-80
2022/09/27 03:27:18;;;;;;;9.20;3.90;;;;;6.70;92364.00;;;;7419843;19;20133;-80
2022/09/27 03:29:51;;;;;;;7.93;3.43;;;;;6.80;92378.00;;;;7425507;19;20125;-81
2022/09/27 03:32:25;;;;;;;8.37;3.63;;;;;6.70;92367.00;;;;7424184;19;20132;-79
2022/09/27 03:35:07;;;;;;;10.10;3.47;;;;;6.80;92369.00;;;;7400193;19;20195;-75
2022/09/27 03:37:46;;;;;;;9.73;3.40;;;;;6.70;92355.00;;;;7424089;19;20140;-75
2022/09/27 03:43:07;;;;;;;10.90;4.20;;;;;6.60;92369.00;;;;7351075;19;20269;31
2022/09/27 03:45:59;;;;;;;7.70;3.20;;;;;6.80;92355.00;;;;7413404;19;20145;-78
2022/09/27 03:48:29;;;;;;;11.57;3.93;;;;;6.70;92366.00;;;;7422951;19;20150;-78
2022/09/27 03:51:16;;;;;;;6.97;3.10;;;;;6.80;92361.00;;;;7392593;19;20220;-77
2022/09/27 03:53:50;;;;;;;11.93;3.00;;;;;6.90;92356.00;;;;7370308;19;20184;-77
2022/09/27 03:56:39;;;;;;;10.40;2.80;;;;;6.60;92364.00;;;;7382181;19;20196;-80
2022/09/27 03:59:25;;;;;;;9.17;2.97;;;;;6.60;92374.00;;;;7409690;19;20137;-79
2022/09/27 04:02:00;;;;;;;8.53;3.53;;;;;6.70;92370.00;;;;7408367;19;20168;-79
2022/09/27 04:04:28;;;;;;;8.23;3.50;;;;;6.80;92371.00;;;;7410251;19;20726;-78
2022/09/27 04:06:59;;;;;;;6.87;3.50;;;;;6.70;92371.00;;;;7425802;19;20132;-76
2022/09/27 04:09:36;;;;;;;7.20;2.70;;;;;6.70;92382.00;;;;7422554;19;20136;-76
2022/09/27 04:15:11;;;;;;;6.23;2.63;;;;;6.70;92368.00;;;;7389120;19;20195;-80
2022/09/27 04:17:48;;;;;;;7.20;3.10;;;;;6.60;92378.00;;;;7411408;19;20196;-80
2022/09/27 04:26:19;;;;;;;7.13;2.40;;;;;6.60;92370.00;;;;7392782;19;20200;-79
2022/09/27 04:29:08;;;;;;;8.83;3.07;;;;;6.60;92375.00;;;;7407182;19;20185;-79
2022/09/27 04:37:45;;;;;;;8.27;2.60;;;;;6.60;92365.00;;;;7417760;19;20120;-76
2022/09/27 04:40:46;;;;;;;5.07;2.33;;;;;6.50;92369.00;;;;7410267;19;20188;-80
2022/09/27 04:43:24;;;;;;;6.07;2.70;;;;;6.40;92375.00;;;;7407467;19;20126;-80
2022/09/27 04:45:52;;;;;;;7.93;3.53;;;;;6.40;92382.00;;;;7405925;19;20159;-80
2022/09/27 04:48:28;;;;;;;6.27;3.40;;;;;6.50;92376.00;;;;7410688;19;20192;-79
2022/09/27 04:51:20;;;;;;;4.20;3.20;;;;;6.40;92385.00;;;;7414771;19;20152;-79
2022/09/27 04:53:52;;;;;;;6.27;3.17;;;;;6.50;92388.00;;;;7414412;19;20133;-78
2022/09/27 04:56:26;;;;;;;6.50;2.73;;;;;6.50;92370.00;;;;7409329;19;20238;-79
2022/09/27 04:58:54;;;;;;;4.50;2.90;;;;;6.40;92399.00;;;;7414775;19;20129;-77
2022/09/27 05:01:21;;;;;;;3.03;2.20;;;;;6.30;92400.00;;;;7416196;19;20140;-77
2022/09/27 05:03:57;;;;;;;5.90;2.53;;;;;6.40;92408.00;;;;7405510;19;20596;-79
2022/09/27 05:06:25;;;;;;;4.43;1.93;;;;;6.30;92400.00;;;;7403004;19;20147;-78
2022/09/27 05:08:52;;;;;;;4.40;2.20;;;;;6.30;92418.00;;;;7407919;19;20121;-80
2022/09/27 05:11:26;;;;;;;9.20;2.10;;;;;6.30;92423.00;;;;7407018;19;20123;-79
2022/09/27 05:13:54;;;;;;;3.80;1.93;;;;;6.30;92430.00;;;;7400642;19;20136;-79
2022/09/27 05:16:21;;;;;;;2.47;1.60;;;;;6.40;92434.00;;;;7394488;19;20610;-80
2022/09/27 05:19:02;;;;;;;3.70;1.63;;;;;6.40;92439.00;;;;7409570;19;20140;-78
2022/09/27 05:21:32;;;;;;;2.80;1.37;;;;;6.40;92436.00;;;;7412562;19;20129;-80
2022/09/27 05:24:08;;;;;;;1.63;1.30;;;;;6.20;92438.00;;;;7409644;19;20148;-79
2022/09/27 05:26:36;;;;;;;1.30;1.20;;;;;6.00;92437.00;;;;7408076;19;20144;-79
2022/09/27 05:29:04;;;;;;;2.47;1.20;;;;;6.00;92444.00;;;;7406979;19;20141;-78
2022/09/27 05:31:43;;;;;;;3.40;0.93;;;;;6.10;92451.00;;;;7401869;19;20159;-80
2022/09/27 05:34:31;;;;;;;0.73;0.70;;;;;6.20;92444.00;;;;7408253;19;20147;-81
2022/09/27 05:37:09;;;;;;;2.13;1.20;;;;;6.20;92447.00;;;;7414807;19;20133;-80
2022/09/27 05:56:18;;;;;;;2.97;2.00;;;;;6.10;92464.00;;;;7400739;19;20164;-80
2022/09/27 05:58:52;;;;;;;2.77;1.90;;;;;6.00;92475.00;;;;7398771;19;20177;-76
2022/09/27 06:01:20;;;;;;;1.70;1.60;;;;;6.00;92482.00;;;;7404491;19;20141;-78
2022/09/27 06:03:48;;;;;;;2.27;1.40;;;;;5.90;92490.00;;;;7413608;19;20128;-81
2022/09/27 06:06:34;;;;;;;1.20;1.10;;;;;5.90;92484.00;;;;7390339;19;21125;-79
2022/09/27 06:09:27;;;;;;;3.00;1.00;;;;;5.80;92497.00;;;;7400982;19;20171;31
2022/09/27 06:12:10;;;;;;;1.83;0.90;;;;;6.00;92499.00;;;;7401984;19;20188;-80
2022/09/27 06:14:52;;;;;;;1.47;0.90;;;;;6.00;92502.00;;;;7411249;19;20168;-79
2022/09/27 06:17:41;;;;;;;1.47;0.90;;;;;6.10;92503.00;;;;7382815;19;20184;-77
2022/09/27 06:27:25;;;;;;;0.63;0.60;;;;;5.80;92510.00;;;;7355189;19;20196;31
2022/09/27 06:30:15;;;;;;;0.60;0.60;;;;;5.80;92514.00;;;;7406160;19;20163;-80
2022/09/27 06:47:11;;;;;;;0.67;0.67;;;;;5.90;92521.00;;;;7402690;19;20188;-80
2022/09/27 06:50:11;;;;;;;1.63;0.43;;;;;6.00;92515.00;;;;7413900;19;20141;-81
2022/09/27 06:52:53;;;;;;;3.03;0.80;;;;;6.10;92515.00;;;;7404281;19;20648;-80
2022/09/27 06:55:27;;;;;;;0.83;0.80;;;;;6.20;92519.00;;;;7409572;19;20161;-80
2022/09/27 07:01:17;;;;;;;1.17;1.07;;;;;6.30;92534.00;;;;7412520;19;20147;-81
2022/09/27 07:06:35;;;;;;;1.83;1.20;;;;;6.30;92549.00;;;;7396777;19;20820;-79
2022/09/27 07:09:18;;;;;;;2.67;1.03;;;;;6.30;92555.00;;;;7400219;19;20187;-80
2022/09/27 07:12:00;;;;;;;2.97;1.50;;;;;6.30;92548.00;;;;7413746;19;20534;-79
2022/09/27 07:14:39;;;;;;;3.33;1.30;;;;;6.40;92544.00;;;;7409763;19;20192;-79
2022/09/27 07:17:20;;;;;;;6.97;1.40;;;;;6.70;92553.00;;;;7410814;19;20222;-79
2022/09/27 07:19:48;;;;;;;4.83;1.47;;;;;6.90;92557.00;;;;7417394;19;20208;-78
2022/09/27 07:23:09;;;;;;;2.53;1.37;;;;;7.00;92560.00;;;;7369664;19;20196;-81
2022/09/27 07:26:03;;;;;;;1.63;1.20;;;;;6.90;92560.00;;;;7398734;19;20190;-79
2022/09/27 07:28:48;;;;;;;3.20;1.07;;;;;6.70;92583.00;;;;7401138;19;20147;-80
2022/09/27 07:31:16;;;;;;;1.60;0.90;;;;;6.50;92563.00;;;;7410878;19;20157;-81
2022/09/27 07:33:52;;;;;;;1.73;1.00;;;;;6.60;92568.00;;;;7417229;19;20148;-81
2022/09/27 07:39:00;;;;;;;1.37;1.03;;;;;6.50;92573.00;;;;7367574;19;20192;-80
2022/09/27 07:41:46;;;;;;;4.07;1.20;;;;;6.30;92573.00;;;;7398456;19;20192;-80
2022/09/27 07:44:15;;;;;;;1.63;1.20;;;;;6.60;92571.00;;;;7407728;19;20148;-80
2022/09/27 07:46:55;;;;;;;1.80;1.13;;;;;6.80;92569.00;;;;7399638;19;20222;-78
2022/09/27 07:49:25;;;;;;;0.93;0.93;;;;;7.00;92580.00;;;;7407799;19;20137;-79
2022/09/27 07:52:01;;;;;;;1.10;1.00;;;;;6.90;92575.00;;;;7414113;19;20153;-81
2022/09/27 07:54:29;;;;;;;3.77;1.80;;;;;7.00;92589.00;;;;7410869;19;20659;-78
2022/09/27 07:56:57;;;;;;;5.63;1.70;;;;;6.50;92595.00;;;;7402644;19;20148;-79
2022/09/27 07:59:45;;;;;;;1.87;1.60;;;;;6.60;92601.00;;;;7405097;19;20704;-79
2022/09/27 08:02:15;;;;;;;4.00;2.00;;;;;6.60;92605.00;;;;7410791;19;20129;-78
2022/09/27 08:04:52;;;;;;;4.10;2.03;;;;;6.50;92627.00;;;;7408048;19;20129;-80
2022/09/27 08:07:33;;;;;;;3.23;1.93;;;;;6.30;92627.00;;;;7383668;19;20183;-79
2022/09/27 08:10:15;;;;;;;3.30;1.77;;;;;6.40;92618.00;;;;7412037;19;20144;-79
2022/09/27 08:12:42;;;;;;;2.13;1.60;;;;;6.30;92626.00;;;;7410487;19;20206;-79
2022/09/27 08:15:16;;;;;;;2.17;1.67;;;;;6.30;92629.00;;;;7410065;19;20136;-78
2022/09/27 08:17:44;;;;;;;5.43;1.90;;;;;6.30;92627.00;;;;7409114;19;20634;-79
2022/09/27 08:20:13;;;;;;;3.67;1.60;;;;;6.30;92635.00;;;;7407237;19;20148;-80
2022/09/27 08:22:47;;;;;;;3.53;1.40;;;;;6.30;92630.00;;;;7403650;19;20120;-80
2022/09/27 08:25:15;;;;;;;4.67;1.77;;;;;6.50;92639.00;;;;7405840;19;20588;-79
2022/09/27 08:27:53;;;;;;;6.33;2.10;;;;;6.50;92634.00;;;;7404640;19;20190;-77
2022/09/27 08:30:31;;;;;;;2.30;2.10;;;;;6.20;92638.00;;;;7407946;19;20133;-79
2022/09/27 08:33:01;;;;;;;4.00;1.77;;;;;6.40;92646.00;;;;7399633;19;20145;-79
2022/09/27 08:35:39;;;;;;;5.23;2.17;;;;;6.40;92640.00;;;;7404073;19;20145;-77
2022/09/27 08:38:08;;;;;;;6.07;1.70;;;;;6.50;92638.00;;;;7400055;19;20141;-77
2022/09/27 08:40:58;;;;;;;4.20;1.77;;;;;6.60;92655.00;;;;7405367;19;20140;-78
2022/09/27 08:44:02;;;;;;;1.73;1.60;;;;;6.50;92661.00;;;;7405933;19;20141;-78
2022/09/27 08:46:49;;;;;;;2.63;1.30;;;;;6.30;92657.00;;;;7409206;19;20156;-77
2022/09/27 08:50:00;;;;;;;4.50;1.40;;;;;6.10;92657.00;;;;7403455;19;20635;-80
2022/09/27 08:53:03;;;;;;;2.37;1.27;;;;;5.90;92657.00;;;;7400531;19;20152;-79
2022/09/27 08:55:46;;;;;;;1.40;1.20;;;;;6.00;92650.00;;;;7403349;19;20155;-79
2022/09/27 08:58:32;;;;;;;4.30;1.60;;;;;6.20;92644.00;;;;7412693;19;20141;-79
2022/09/27 09:04:51;;;;;;;2.10;1.90;;;;;6.50;92646.00;;;;7398839;19;20565;-77
2022/09/27 09:18:03;;;;;;;3.20;2.50;;;;;8.00;92634.00;;;;7342507;19;21053;31
2022/09/27 09:24:08;;;;;;;7.47;3.30;;;;;8.70;92628.00;;;;7330392;19;20160;31
2022/09/27 09:31:02;;;;;;;12.20;3.03;;;;;9.00;92633.00;;;;7367328;19;20283;-76
2022/09/27 09:36:36;;;;;;;6.53;2.53;;;;;8.80;92617.00;;;;7357081;19;20220;31
2022/09/27 10:01:54;;;;;;;3.70;1.80;;;;;8.70;92612.00;;;;7403449;19;20151;-81
2022/09/27 10:04:33;;;;;;;4.50;2.00;;;;;9.90;92599.00;;;;7401054;19;20683;-80
2022/09/27 10:07:30;;;;;;;3.38;1.98;;;;;11.00;92589.00;;;;7383412;19;20209;-81
2022/09/27 10:10:24;;;;;;;5.53;1.75;;;;;11.30;92598.00;;;;7379231;19;20188;-79
2022/09/27 10:13:11;;;;;;;3.85;1.60;;;;;11.40;92595.00;;;;7411068;19;20160;-79
2022/09/27 10:16:02;;;;;;;3.25;1.40;;;;;10.50;92604.00;;;;7406659;19;20133;-81
2022/09/27 10:18:56;;;;;;;2.40;1.40;;;;;10.00;92615.00;;;;7417226;19;20163;-83
2022/09/27 10:21:41;;;;;;;2.60;1.10;;;;;9.40;92611.00;;;;7411875;19;20155;-80
2022/09/27 10:24:20;;;;;;;5.43;1.80;;;;;9.00;92592.00;;;;7414508;19;20129;-78
2022/09/27 10:39:29;;;;;;;2.50;1.33;;;;;9.00;92596.00;;;;7387742;19;20140;-80
2022/09/27 10:42:37;;;;;;;5.20;2.05;;;;;9.40;92602.00;;;;7395015;19;20140;-79
2022/09/27 10:45:29;;;;;;;2.35;1.63;;;;;9.70;92595.00;;;;7397665;19;20129;-80
2022/09/27 10:48:17;;;;;;;2.17;1.20;;;;;10.30;92589.00;;;;7392974;19;20155;-80
2022/09/27 10:51:05;;;;;;;3.28;1.23;;;;;10.60;92575.00;;;;7409562;19;20159;-82
2022/09/27 10:53:46;;;;;;;1.15;0.90;;;;;10.20;92579.00;;;;7406059;19;20121;-82
2022/09/27 10:56:30;;;;;;;1.45;1.15;;;;;9.70;92581.00;;;;7409992;19;20144;-82
2022/09/27 10:59:05;;;;;;;2.13;1.02;;;;;9.60;92597.00;;;;7394056;19;20137;-82
2022/09/27 11:01:49;;;;;;;1.65;0.82;;;;;9.30;92590.00;;;;7401122;19;20195;-80
2022/09/27 11:04:31;;;;;;;1.48;0.75;;;;;9.00;92586.00;;;;7401230;19;20165;-81
2022/09/27 11:07:14;;;;;;;1.10;0.80;;;;;8.50;92594.00;;;;7400146;19;20156;-81
2022/09/27 11:09:54;;;;;;;1.37;1.00;;;;;8.60;92586.00;;;;7395447;19;20491;-80
2022/09/27 11:12:24;;;;;;;2.20;1.23;;;;;8.40;92597.00;;;;7398287;19;20199;-81
2022/09/27 11:15:13;;;;;;;1.13;0.97;;;;;8.60;92598.00;;;;7400574;19;20208;-82
2022/09/27 11:18:00;;;;;;;0.83;0.67;;;;;8.60;92600.00;;;;7398223;19;20204;-82
2022/09/27 11:21:07;;;;;;;3.33;0.93;;;;;8.50;92603.00;;;;7399656;19;20511;-82
2022/09/27 11:23:44;;;;;;;1.20;0.67;;;;;8.40;92603.00;;;;7403140;19;20133;-80
2022/09/27 11:26:31;;;;;;;1.00;0.63;;;;;8.00;92599.00;;;;7402608;19;20482;-80
2022/09/27 11:29:35;;;;;;;3.30;0.70;;;;;8.20;92608.00;;;;7400385;19;20153;-83
2022/09/27 11:32:33;;;;;;;0.93;0.47;;;;;8.20;92609.00;;;;7406904;19;20150;-80
2022/09/27 11:35:14;;;;;;;0.60;0.50;;;;;8.20;92603.00;;;;7407940;19;20153;-81
2022/09/27 11:37:58;;;;;;;3.43;0.70;;;;;8.20;92598.00;;;;7403770;19;20604;-80
2022/09/27 11:40:39;;;;;;;2.17;0.63;;;;;8.30;92598.00;;;;7402448;19;20125;-81
2022/09/27 11:43:26;;;;;;;0.20;0.20;;;;;8.10;92607.00;;;;7401758;19;20205;-81
2022/09/27 11:46:00;;;;;;;0.33;0.33;;;;;7.90;92602.00;;;;7404687;19;20762;-83
2022/09/27 11:49:07;;;;;;;0.30;0.30;;;;;7.80;92605.00;;;;7399102;19;20144;-80
2022/09/27 11:52:16;;;;;;;0.50;0.40;;;;;7.70;92600.00;;;;7400403;19;20152;-80
2022/09/27 11:55:18;;;;;;;0.90;0.30;;;;;7.60;92592.00;;;;7400881;19;20200;-83
2022/09/27 11:58:11;;;;;;;0.70;0.60;;;;;7.80;92592.00;;;;7403054;19;20148;-83
2022/09/27 12:01:20;;;;;;;0.80;0.40;;;;;7.90;92587.00;;;;7406764;19;20133;-83
2022/09/27 12:04:09;;;;;;;2.37;0.60;;;;;7.90;92587.00;;;;7400000;19;20224;-83
2022/09/27 12:06:49;;;;;;;2.10;0.50;;;;;7.80;92581.00;;;;7400056;19;20622;-82
2022/09/27 12:09:28;;;;;;;1.17;0.47;;;;;7.80;92575.00;;;;7399765;19;20595;-81
2022/09/27 12:12:17;;;;;;;1.30;0.50;;;;;7.70;92572.00;;;;7404161;19;20152;-81
2022/09/27 12:15:13;;;;;;;0.30;0.30;;;;;7.60;92583.00;;;;7408662;19;20144;-81
2022/09/27 12:17:51;;;;;;;0.30;0.30;;;;;7.50;92588.00;;;;7401489;19;20140;-81
2022/09/27 12:20:21;;;;;;;3.93;0.53;;;;;7.60;92584.00;;;;7399420;19;20141;-81
2022/09/27 12:23:03;;;;;;;1.10;0.50;;;;;7.50;92583.00;;;;7396849;19;20160;-81
2022/09/27 12:25:35;;;;;;;0.30;0.30;;;;;7.80;92579.00;;;;7396163;19;20588;-81
2022/09/27 12:28:24;;;;;;;1.37;0.90;;;;;7.90;92583.00;;;;7400767;19;20483;-81
2022/09/27 12:31:07;;;;;;;0.80;0.80;;;;;8.30;92574.00;;;;7400709;19;20145;-78
2022/09/27 12:34:14;;;;;;;0.37;0.30;;;;;8.00;92581.00;;;;7408231;19;20144;-81
2022/09/27 12:36:58;;;;;;;0.20;0.20;;;;;7.80;92576.00;;;;7398288;19;20476;-82
2022/09/27 12:40:24;;;;;;;0.20;0.20;;;;;8.10;92566.00;;;;7394387;19;20147;-80
2022/09/27 12:43:12;;;;;;;0.40;0.33;;;;;8.20;92560.00;;;;7392662;19;20152;-80
2022/09/27 12:46:23;;;;;;;0.57;0.57;;;;;8.30;92562.00;;;;7404104;19;20145;-78
2022/09/27 12:49:13;;;;;;;1.60;0.60;;;;;8.40;92550.00;;;;7397337;19;20140;-79
2022/09/27 12:52:02;;;;;;;0.47;0.40;;;;;8.40;92564.00;;;;7399618;19;20600;-81
2022/09/27 12:54:51;;;;;;;1.47;0.40;;;;;8.40;92566.00;;;;7400936;19;20789;-77
2022/09/27 12:58:06;;;;;;;0.60;0.50;;;;;8.40;92554.00;;;;7420274;19;20138;-77
2022/09/27 13:00:54;;;;;;;0.53;0.53;;;;;8.50;92554.00;;;;7397651;19;20139;-77
2022/09/27 13:03:54;;;;;;;2.00;0.47;;;;;8.80;92545.00;;;;7397172;19;20493;-76
2022/09/27 13:06:40;;;;;;;1.03;0.53;;;;;8.90;92537.00;;;;7401670;19;20125;-79
2022/09/27 13:09:23;;;;;;;0.43;0.43;;;;;9.00;92536.00;;;;7404147;19;20150;-78
2022/09/27 13:12:11;;;;;;;1.13;0.40;;;;;8.80;92536.00;;;;7413502;19;20142;-76
2022/09/27 13:15:13;;;;;;;0.83;0.60;;;;;8.70;92534.00;;;;7413220;19;20137;-77
2022/09/27 13:17:43;;;;;;;1.17;0.50;;;;;8.60;92536.00;;;;7410880;19;20140;-77
2022/09/27 13:20:35;;;;;;;1.20;0.40;;;;;8.80;92541.00;;;;7389838;19;20146;-77
2022/09/27 13:23:24;;;;;;;1.00;0.80;;;;;8.70;92542.00;;;;7390615;19;20144;-80
2022/09/27 13:26:45;;;;;;;0.53;0.43;;;;;8.40;92536.00;;;;7393431;19;20152;-77
2022/09/27 13:29:26;;;;;;;0.90;0.77;;;;;8.30;92536.00;;;;7396915;19;20236;-77
2022/09/27 13:32:14;;;;;;;0.37;0.30;;;;;8.20;92526.00;;;;7395345;19;20252;-79
2022/09/27 13:34:46;;;;;;;0.50;0.47;;;;;8.10;92536.00;;;;7404276;19;20145;-79
2022/09/27 13:37:54;;;;;;;1.17;0.90;;;;;8.30;92544.00;;;;6896539;19;9739882;-79
2022/09/27 13:40:37;;;;;;;3.20;0.53;;;;;8.10;92555.00;;;;7404584;19;20132;-80
2022/09/27 13:43:40;;;;;;;1.13;0.60;;;;;8.00;92543.00;;;;7407013;19;20136;-82
2022/09/27 14:08:12;;;;;;;2.20;1.07;;;;;7.10;92559.00;;;;7391010;19;20204;-79
2022/09/27 14:10:46;;;;;;;0.70;0.70;;;;;7.20;92563.00;;;;7406310;19;20125;-80
2022/09/27 14:13:19;;;;;;;1.83;0.90;;;;;7.20;92551.00;;;;7393663;19;20618;-78
2022/09/27 14:15:55;;;;;;;4.03;0.70;;;;;7.30;92561.00;;;;7393454;19;20129;-77
2022/09/27 14:18:22;;;;;;;0.50;0.50;;;;;7.30;92546.00;;;;7392371;19;20151;-79
2022/09/27 14:20:52;;;;;;;1.27;0.50;;;;;7.60;92536.00;;;;7395115;19;20505;-77
2022/09/27 14:23:26;;;;;;;0.50;0.50;;;;;7.60;92536.00;;;;7397921;19;20132;-79
2022/09/27 14:26:02;;;;;;;0.87;0.50;;;;;7.60;92540.00;;;;7401773;19;20224;-81
2022/09/27 14:28:42;;;;;;;0.57;0.57;;;;;7.70;92542.00;;;;7403322;19;20530;-78
2022/09/27 14:31:22;;;;;;;4.23;0.73;;;;;7.80;92527.00;;;;7406181;19;20148;-80
2022/09/27 14:34:10;;;;;;;0.80;0.70;;;;;8.00;92528.00;;;;7418050;19;20518;-78
2022/09/27 14:39:36;;;;;;;1.07;0.80;;;;;8.50;92545.00;;;;7422244;19;20128;-79
2022/09/27 14:42:16;;;;;;;1.20;0.87;;;;;8.00;92531.00;;;;7420499;19;20158;-78
2022/09/27 14:44:52;;;;;;;2.07;1.00;;;;;8.30;92538.00;;;;7405582;19;20145;-77
2022/09/27 14:47:23;;;;;;;1.10;0.70;;;;;8.10;92542.00;;;;7411789;19;20149;-76
2022/09/27 14:50:01;;;;;;;1.67;0.80;;;;;8.20;92559.00;;;;7424843;19;20129;-78
2022/09/27 14:52:34;;;;;;;1.17;0.90;;;;;8.00;92551.00;;;;7423578;19;20134;-78
2022/09/27 14:55:16;;;;;;;2.13;0.97;;;;;8.20;92556.00;;;;7420775;19;20156;-78
2022/09/27 14:58:03;;;;;;;1.67;0.80;;;;;8.20;92554.00;;;;7423085;19;20124;-77
2022/09/27 15:00:58;;;;;;;1.93;1.60;;;;;7.80;92554.00;;;;7425568;19;20135;-78
2022/09/27 15:03:31;;;;;;;5.03;3.03;;;;;8.00;92537.00;;;;7415090;19;20149;-75
2022/09/27 15:06:24;;;;;;;1.33;0.60;;;;;8.00;92555.00;;;;7411386;19;20200;-79
2022/09/27 15:08:59;;;;;;;1.50;0.87;;;;;8.10;92562.00;;;;7410024;19;20212;-78
2022/09/27 15:11:34;;;;;;;1.30;0.70;;;;;7.90;92552.00;;;;7418517;19;20164;-79
2022/09/27 15:14:04;;;;;;;1.47;1.00;;;;;7.70;92559.00;;;;7410372;19;20153;-80
2022/09/27 15:16:33;;;;;;;0.70;0.70;;;;;7.40;92575.00;;;;7409880;19;20136;-80
2022/09/27 15:19:17;;;;;;;1.57;0.73;;;;;7.60;92560.00;;;;7418645;19;20140;-80
2022/09/27 15:21:45;;;;;;;2.00;0.90;;;;;7.60;92566.00;;;;7418809;19;20134;-81
2022/09/27 15:24:45;;;;;;;2.00;1.00;;;;;7.30;92580.00;;;;7422992;19;20132;-77
2022/09/27 15:27:24;;;;;;;1.83;0.80;;;;;7.40;92561.00;;;;7425078;19;20145;-79
2022/09/27 15:30:18;;;;;;;1.17;0.70;;;;;7.80;92567.00;;;;7423334;19;20161;-81
2022/09/27 15:32:50;;;;;;;2.10;0.80;;;;;8.00;92567.00;;;;7418216;19;20141;-81
2022/09/27 15:35:34;;;;;;;1.77;0.80;;;;;7.90;92582.00;;;;7410530;19;20132;-81
2022/09/27 15:38:39;;;;;;;2.07;0.80;;;;;7.60;92574.00;;;;7409722;19;20619;-81
2022/09/27 15:41:23;;;;;;;1.27;0.80;;;;;7.20;92586.00;;;;7420129;19;20625;-81
2022/09/27 15:43:51;;;;;;;1.20;0.80;;;;;7.30;92565.00;;;;7410013;19;20145;-83
2022/09/27 15:46:47;;;;;;;2.93;0.70;;;;;7.40;92567.00;;;;7422871;19;20128;-80
2022/09/27 15:49:36;;;;;;;2.27;1.10;;;;;7.70;92572.00;;;;7415884;19;20138;-81
2022/09/27 15:52:44;;;;;;;3.00;0.97;;;;;7.70;92571.00;;;;7404304;19;20241;-80
2022/09/27 15:55:16;;;;;;;2.83;1.53;;;;;7.60;92578.00;;;;7409402;19;20136;-82
2022/09/27 15:57:58;;;;;;;5.50;1.00;;;;;7.70;92577.00;;;;7405871;19;20141;-82
2022/09/27 16:00:28;;;;;;;3.10;1.10;;;;;7.90;92581.00;;;;7401153;19;20147;-82
2022/09/27 16:03:05;;;;;;;4.17;1.10;;;;;7.80;92581.00;;;;7400240;19;20144;-81
2022/09/27 16:05:45;;;;;;;6.17;1.20;;;;;7.70;92582.00;;;;7393814;19;20188;-81
2022/09/27 16:08:21;;;;;;;2.30;1.00;;;;;7.50;92592.00;;;;7400139;19;20141;-79
2022/09/27 16:10:53;;;;;;;4.77;0.80;;;;;7.40;92598.00;;;;7399692;19;20125;-81
2022/09/27 16:13:29;;;;;;;1.37;0.83;;;;;7.30;92588.00;;;;7395485;19;20125;-81
2022/09/27 16:16:02;;;;;;;3.20;0.90;;;;;7.20;92591.00;;;;7396899;19;20141;-81
2022/09/27 16:18:37;;;;;;;3.37;1.00;;;;;7.20;92596.00;;;;7397726;19;20162;-80
2022/09/27 16:21:09;;;;;;;2.27;0.90;;;;;7.20;92607.00;;;;7398600;19;20145;-83
2022/09/27 16:23:43;;;;;;;3.13;0.90;;;;;7.10;92603.00;;;;7399410;19;20505;-82